Williams Center, Oklahoma
Current Conditions -  °F | °C
As of 6:53 PM on Saturday 22 Nov 2014 (Local Time) from KTUL Reporting Station
Overcast Overcast  
Wind Chill: 57°   Ceiling: 15000
Heat Index: 57°   Visibility: 10mi
Dew Point: 54°   Wind: 20mph
Humidity: 89%   Direction: 160°SSE
Pressure: 29.79"   Gusts: 28mph
Location:  36.1544°N, 95.9905°W
Report Text: KTUL 230053Z 16017G24KT 10SM FEW012 OVC150 14/12 A2979 RMK AO2 SLP087 T01390122
Loading
Personal Weather Stations






























Interactive Weather Map New forecast layout! Learn more

10-Day Weather Forecast

Advertisements
Track Severe Weather on mobile